Elbella — 9HA2358 — position and weather

sailwx.info

Track history (hours):
 
Tides and Currents Weather Stations Pressure Air Temp Water Temp Dewpoint Dewpoint Depression Visibility Wind Speed Wind Dir Waves Ship Positions

Elbella

Last reported at 2016-May-22 17:21 UTC. Time now 2016-May-24 19:41 UTC.
Position N 36°48' E 034°39'.

Length 176 m; draft 9.5 m.

Type: Ship (hazmat cat A). MMSI: 248422000.

Date/timePositionNaut miles runAvg speedWind from/ knotsBaromVisibWave heightAir tempDewpointWater temp
2016-May-22 17:21N 36°48' E 034°39'3 0.9
2016-May-22 14:14N 36°46' E 034°40'1 1.0
2016-May-22 13:33N 36°45' E 034°40'0 0.0
2016-May-22 12:33N 36°45' E 034°40'  
2016-May-19 21:33N 34°23' E 032°43'1515.3
2016-May-19 20:33N 34°19' E 033°01'3515.3
2016-May-19 18:14N 34°11' E 033°42'1115.7
2016-May-19 17:33N 34°09' E 033°55'1615.8
2016-May-19 16:31N 34°05' E 034°14'1616.1
2016-May-19 15:33N 34°02' E 034°33'  
2016-May-17 09:31N 35°32' E 035°46'25 1.9
2016-May-16 20:19N 35°10' E 035°32'1316.8
2016-May-16 19:33N 34°57' E 035°34'13 1.8
2016-May-16 12:29N 34°55' E 035°50'1 0.7
2016-May-16 11:05N 34°54' E 035°50'1 1.5
2016-May-16 10:33N 34°55' E 035°50'15 1.9
2016-May-16 02:30N 34°51' E 035°32'39 3.5
2016-May-15 15:17N 34°14' E 035°19'1013.6
2016-May-15 14:33N 34°04' E 035°16'1010.0
2016-May-15 13:34N 33°55' E 035°17'56 2.6
2016-May-14 16:07N 34°15' E 034°14'1116.1
2016-May-14 15:27N 34°19' E 034°02'1516.4
2016-May-14 14:33N 34°25' E 033°46'2016.7
2016-May-14 13:23N 34°32' E 033°24'19 1.9
2016-May-14 03:32N 34°39' E 033°02'2 1.9
2016-May-14 02:33N 34°40' E 033°04'0 0.0
2016-May-14 01:33N 34°40' E 033°04'0 0.0
2016-May-14 00:26N 34°40' E 033°04'0 0.0
2016-May-13 23:26N 34°40' E 033°04'0 0.0
2016-May-13 22:26N 34°40' E 033°04'0 0.0
2016-May-13 21:22N 34°40' E 033°04'0 0.0
2016-May-13 20:33N 34°40' E 033°04'0 0.0
2016-May-13 19:33N 34°40' E 033°04'0 0.0
2016-May-13 18:33N 34°40' E 033°04'0 0.1
2016-May-13 17:33N 34°40' E 033°04'8 7.6
2016-May-13 16:33N 34°33' E 033°09'1717.0
2016-May-13 15:33N 34°16' E 033°07'1717.0
2016-May-13 14:33N 33°59' E 033°05'1716.9
2016-May-13 13:33N 33°43' E 033°03'1717.0
2016-May-13 12:33N 33°26' E 033°01'1716.9
2016-May-13 11:33N 33°09' E 032°59'1717.0
2016-May-13 10:33N 32°52' E 032°57'1717.1
2016-May-13 09:33N 32°35' E 032°55'1716.7
2016-May-13 08:33N 32°18' E 032°53'1716.5
2016-May-13 07:33N 32°02' E 032°51'1615.8
2016-May-13 06:33N 31°47' E 032°46'1716.7
2016-May-13 05:33N 31°38' E 032°29'1414.4
2016-May-13 04:33N 31°24' E 032°25'1111.5
2016-May-13 03:34N 31°13' E 032°21'  
Track history (hours):
 
Tides and Currents Weather Stations Pressure Air Temp Water Temp Dewpoint Dewpoint Depression Visibility Wind Speed Wind Dir Waves Ship Positions

Elbella

Last reported at 2016-May-22 17:21 UTC. Time now 2016-May-24 19:41 UTC.
Position N 36°48' E 034°39'.

Length 176 m; draft 9.5 m.

Type: Ship (hazmat cat A). MMSI: 248422000.

Date/timePositionNaut miles runAvg speedWind from/ knotsBaromVisibWave heightAir tempDewpointWater temp
2016-May-22 17:21N 36°48' E 034°39'3 0.9
2016-May-22 14:14N 36°46' E 034°40'1 1.0
2016-May-22 13:33N 36°45' E 034°40'0 0.0
2016-May-22 12:33N 36°45' E 034°40'  
2016-May-19 21:33N 34°23' E 032°43'1515.3
2016-May-19 20:33N 34°19' E 033°01'3515.3
2016-May-19 18:14N 34°11' E 033°42'1115.7
2016-May-19 17:33N 34°09' E 033°55'1615.8
2016-May-19 16:31N 34°05' E 034°14'1616.1
2016-May-19 15:33N 34°02' E 034°33'  
2016-May-17 09:31N 35°32' E 035°46'25 1.9
2016-May-16 20:19N 35°10' E 035°32'1316.8
2016-May-16 19:33N 34°57' E 035°34'13 1.8
2016-May-16 12:29N 34°55' E 035°50'1 0.7
2016-May-16 11:05N 34°54' E 035°50'1 1.5
2016-May-16 10:33N 34°55' E 035°50'15 1.9
2016-May-16 02:30N 34°51' E 035°32'39 3.5
2016-May-15 15:17N 34°14' E 035°19'1013.6
2016-May-15 14:33N 34°04' E 035°16'1010.0
2016-May-15 13:34N 33°55' E 035°17'56 2.6
2016-May-14 16:07N 34°15' E 034°14'1116.1
2016-May-14 15:27N 34°19' E 034°02'1516.4
2016-May-14 14:33N 34°25' E 033°46'2016.7
2016-May-14 13:23N 34°32' E 033°24'19 1.9
2016-May-14 03:32N 34°39' E 033°02'2 1.9
2016-May-14 02:33N 34°40' E 033°04'0 0.0
2016-May-14 01:33N 34°40' E 033°04'0 0.0
2016-May-14 00:26N 34°40' E 033°04'0 0.0
2016-May-13 23:26N 34°40' E 033°04'0 0.0
2016-May-13 22:26N 34°40' E 033°04'0 0.0
2016-May-13 21:22N 34°40' E 033°04'0 0.0
2016-May-13 20:33N 34°40' E 033°04'0 0.0
2016-May-13 19:33N 34°40' E 033°04'0 0.0
2016-May-13 18:33N 34°40' E 033°04'0 0.1
2016-May-13 17:33N 34°40' E 033°04'8 7.6
2016-May-13 16:33N 34°33' E 033°09'1717.0
2016-May-13 15:33N 34°16' E 033°07'1717.0
2016-May-13 14:33N 33°59' E 033°05'1716.9
2016-May-13 13:33N 33°43' E 033°03'1717.0
2016-May-13 12:33N 33°26' E 033°01'1716.9
2016-May-13 11:33N 33°09' E 032°59'1717.0
2016-May-13 10:33N 32°52' E 032°57'1717.1
2016-May-13 09:33N 32°35' E 032°55'1716.7
2016-May-13 08:33N 32°18' E 032°53'1716.5
2016-May-13 07:33N 32°02' E 032°51'1615.8
2016-May-13 06:33N 31°47' E 032°46'1716.7
2016-May-13 05:33N 31°38' E 032°29'1414.4
2016-May-13 04:33N 31°24' E 032°25'1111.5
2016-May-13 03:34N 31°13' E 032°21'  

Dump ship's entire track history